Time;durP1;ratioP1;P1;durP2;ratioP2;P2;SDS_P1;SDS_P2;PMS_P1;PMS_P2;Temp;Humidity;BMP_temperature;BMP_pressure;BME280_temperature;BME280_humidity;BME280_pressure;Samples;Min_cycle;Max_cycle;Signal;HPM_P1;HPM_P2
2021/01/05 00:01:08;;;;;;;19.15;13.22;;;;;;;7.31;72.19;101795.59;1663503;85;21248;-46
2021/01/05 00:03:36;;;;;;;21.05;13.15;;;;;;;7.32;71.97;101798.60;1711402;83;21145;-47
2021/01/05 00:06:05;;;;;;;17.50;12.58;;;;;;;7.31;71.98;101789.99;1722238;83;21141;-46
2021/01/05 00:08:33;;;;;;;18.35;12.40;;;;;;;7.32;71.87;101794.30;1722435;83;21498;-46
2021/01/05 00:11:02;;;;;;;19.27;13.03;;;;;;;7.33;71.81;101795.17;1724872;82;21181;-46
2021/01/05 00:13:31;;;;;;;18.48;12.28;;;;;;;7.30;71.85;101797.72;1726009;82;21196;-46
2021/01/05 00:16:00;;;;;;;17.77;11.93;;;;;;;7.31;71.94;101800.34;1726678;82;21209;-46
2021/01/05 00:18:28;;;;;;;19.57;13.68;;;;;;;7.34;71.77;101799.48;1727583;82;21160;-46
2021/01/05 00:20:57;;;;;;;19.60;13.53;;;;;;;7.34;71.60;101791.72;1727490;82;21569;-46
2021/01/05 00:23:26;;;;;;;15.72;12.50;;;;;;;7.32;71.52;101785.66;1726349;82;21154;-46
2021/01/05 00:25:54;;;;;;;19.02;12.50;;;;;;;7.30;71.46;101775.72;1724363;81;21279;-46
2021/01/05 00:28:23;;;;;;;21.93;12.33;;;;;;;7.29;71.49;101767.53;1724246;82;21169;-46
2021/01/05 00:30:51;;;;;;;22.70;13.50;;;;;;;7.27;71.48;101774.42;1722176;82;21133;-47
2021/01/05 00:33:19;;;;;;;16.82;12.47;;;;;;;7.26;71.37;101772.67;1720208;82;21149;-46
2021/01/05 00:35:48;;;;;;;21.20;12.93;;;;;;;7.25;71.36;101773.09;1727454;82;21121;-47
2021/01/05 00:38:16;;;;;;;20.92;12.60;;;;;;;7.24;71.43;101771.79;1730903;82;21201;-47
2021/01/05 00:40:45;;;;;;;17.15;12.18;;;;;;;7.24;71.47;101766.61;1726074;82;21150;-46
2021/01/05 00:43:13;;;;;;;18.45;11.90;;;;;;;7.23;71.42;101753.25;1724372;82;21161;-46
2021/01/05 00:45:41;;;;;;;15.93;11.63;;;;;;;7.22;71.41;101755.37;1724318;82;21307;-47
2021/01/05 00:48:11;;;;;;;17.82;11.88;;;;;;;7.21;71.39;101749.33;1721321;82;21170;-46
2021/01/05 00:50:40;;;;;;;19.30;12.33;;;;;;;7.17;71.45;101742.39;1724273;82;21772;-47
2021/01/05 00:53:08;;;;;;;16.05;10.82;;;;;;;7.15;71.50;101740.67;1724400;82;21161;-47
2021/01/05 00:55:36;;;;;;;20.37;11.12;;;;;;;7.16;71.48;101732.04;1726754;82;21173;-46
2021/01/05 00:58:05;;;;;;;21.68;12.70;;;;;;;7.14;71.42;101732.45;1715515;82;21142;-47
2021/01/05 01:00:33;;;;;;;15.70;11.60;;;;;;;7.11;71.57;101724.69;1726973;82;21294;-46
2021/01/05 01:03:07;;;;;;;13.55;10.95;;;;;;;7.10;71.73;101715.17;1726313;82;21605;-46
2021/01/05 01:05:38;;;;;;;17.62;11.65;;;;;;;7.10;71.77;101706.11;1736184;82;21616;-47
2021/01/05 01:08:06;;;;;;;17.23;11.55;;;;;;;7.09;71.77;101704.40;1737396;82;21203;-47
2021/01/05 01:10:34;;;;;;;19.65;11.40;;;;;;;7.09;71.86;101695.34;1742196;82;21132;-46
2021/01/05 01:13:03;;;;;;;20.30;11.70;;;;;;;7.09;71.80;101689.71;1741168;82;21180;-47
2021/01/05 01:15:32;;;;;;;16.87;11.30;;;;;;;7.09;71.82;101684.98;1741117;82;21298;-46
2021/01/05 01:18:01;;;;;;;16.05;10.50;;;;;;;7.08;71.79;101685.41;1739143;82;21136;-46
2021/01/05 01:20:35;;;;;;;16.60;11.43;;;;;;;7.10;71.77;101673.34;1738340;82;21168;-47
2021/01/05 01:23:04;;;;;;;20.50;12.33;;;;;;;7.19;71.46;101659.61;1737983;82;21294;-47
2021/01/05 01:25:34;;;;;;;18.48;11.75;;;;;;;7.16;71.52;101636.27;1711187;82;21188;-46
2021/01/05 01:28:04;;;;;;;22.62;12.10;;;;;;;7.15;71.61;101634.56;1738269;82;21121;-46
2021/01/05 01:30:35;;;;;;;19.65;11.40;;;;;;;7.14;71.71;101644.45;1736656;82;21529;-46
2021/01/05 01:33:06;;;;;;;17.90;12.20;;;;;;;7.15;71.81;101638.44;1737276;82;21549;-46
2021/01/05 01:35:35;;;;;;;19.50;11.15;;;;;;;7.13;71.68;101646.63;1744183;82;21117;-46
2021/01/05 01:38:03;;;;;;;15.38;11.90;;;;;;;7.12;71.83;101635.82;1720933;82;21177;-46
2021/01/05 01:40:40;;;;;;;19.62;12.25;;;;;;;7.12;71.86;101643.59;1734134;82;21120;-46
2021/01/05 01:43:10;;;;;;;14.30;10.53;;;;;;;7.11;71.98;101648.34;1734028;82;21117;-46
2021/01/05 01:45:39;;;;;;;17.02;12.45;;;;;;;7.11;72.09;101653.52;1738043;82;21156;-46
2021/01/05 01:48:09;;;;;;;23.70;12.55;;;;;;;7.13;72.11;101640.16;1737948;82;21585;-46
2021/01/05 01:50:40;;;;;;;20.10;11.75;;;;;;;7.15;72.03;101641.88;1738589;82;21161;-46
2021/01/05 01:53:44;;;;;;;23.02;11.25;;;;;;;7.19;71.98;101644.91;1734264;82;21176;-46
2021/01/05 01:56:58;;;;;;;17.05;11.78;;;;;;;7.21;71.92;101642.36;1738002;82;21113;-46
2021/01/05 01:59:58;;;;;;;22.22;13.10;;;;;;;7.22;71.95;101624.24;1740231;82;21145;-46
2021/01/05 02:02:41;;;;;;;15.88;12.07;;;;;;;7.21;71.96;101621.66;1677183;84;21209;-46
2021/01/05 02:05:15;;;;;;;17.48;12.30;;;;;;;7.19;72.04;101623.37;1669300;85;21179;-46
2021/01/05 02:08:13;;;;;;;16.00;11.33;;;;;;;7.25;72.09;101613.05;1812184;79;23418;-46
2021/01/05 02:11:30;;;;;;;23.80;13.72;;;;;;;7.19;72.10;101621.62;1740580;82;21367;-47
2021/01/05 02:14:30;;;;;;;16.55;12.30;;;;;;;7.22;72.18;101629.84;1756293;82;21183;-46
2021/01/05 02:17:21;;;;;;;19.12;13.50;;;;;;;7.23;72.17;101632.88;1756245;82;21214;-47
2021/01/05 02:19:52;;;;;;;18.10;12.78;;;;;;;7.24;72.12;101630.71;1754667;82;21304;-46
2021/01/05 02:22:47;;;;;;;18.98;13.25;;;;;;;7.20;72.45;101627.67;1756411;82;21189;-46
2021/01/05 02:25:44;;;;;;;20.60;12.30;;;;;;;7.19;72.52;101623.37;1756466;82;21237;-46
2021/01/05 02:28:14;;;;;;;16.37;11.97;;;;;;;7.21;72.47;101621.66;1756489;82;21214;-46
2021/01/05 02:30:45;;;;;;;18.07;12.45;;;;;;;7.18;72.49;101621.20;1756596;82;21235;-47
2021/01/05 02:33:45;;;;;;;18.85;13.55;;;;;;;7.16;72.47;101627.22;1732364;82;21173;-46
2021/01/05 02:36:44;;;;;;;17.40;11.33;;;;;;;7.21;72.53;101632.00;1814491;79;23513;-47
2021/01/05 02:40:01;;;;;;;21.97;12.45;;;;;;;7.16;72.62;101623.33;1761223;80;21289;-47
2021/01/05 02:43:33;;;;;;;24.75;13.68;;;;;;;7.12;72.80;101609.52;1779270;80;21781;-47
2021/01/05 02:46:56;;;;;;;23.05;14.30;;;;;;;7.13;73.06;101600.88;1725239;83;21143;-47
2021/01/05 02:49:48;;;;;;;21.23;13.03;;;;;;;7.15;73.27;101590.56;1744249;81;21216;-47
2021/01/05 02:53:14;;;;;;;19.85;12.65;;;;;;;7.15;73.30;101584.93;1708551;83;21329;-47
2021/01/05 02:56:24;;;;;;;24.43;15.05;;;;;;;7.16;73.34;101576.75;1720941;83;21156;-47
2021/01/05 02:59:28;;;;;;;23.80;13.88;;;;;;;7.13;73.50;101563.81;1734026;82;21161;-46
2021/01/05 03:02:50;;;;;;;20.97;13.65;;;;;;;7.12;73.75;101560.34;1754529;81;21165;-46
2021/01/05 03:05:46;;;;;;;21.33;14.50;;;;;;;7.13;73.75;101562.52;1650721;86;21174;-45
2021/01/05 03:08:21;;;;;;;21.95;13.55;;;;;;;7.19;73.87;101556.07;1811118;79;23127;-46
2021/01/05 03:11:08;;;;;;;28.38;15.45;;;;;;;7.15;73.85;101562.93;1785970;80;21215;-46
2021/01/05 03:14:11;;;;;;;23.87;13.38;;;;;;;7.19;74.08;101565.13;1771634;79;23148;-46
2021/01/05 03:16:53;;;;;;;21.05;13.83;;;;;;;7.29;73.81;101555.25;1809467;79;22968;-46
2021/01/05 03:19:43;;;;;;;20.43;12.78;;;;;;;7.14;74.24;101549.99;1762075;81;21188;-46
2021/01/05 03:22:27;;;;;;;22.95;14.50;;;;;;;7.18;74.37;101547.85;1784356;79;28234;-47
2021/01/05 03:25:14;;;;;;;24.57;13.93;;;;;;;7.33;73.87;101553.11;1765988;80;21171;-46
2021/01/05 03:28:02;;;;;;;20.77;12.18;;;;;;;7.29;74.16;101557.84;1768968;80;21124;-46
2021/01/05 03:31:11;;;;;;;18.85;11.78;;;;;;;7.27;74.24;101562.14;1757424;80;21140;-46
2021/01/05 03:34:01;;;;;;;21.50;11.97;;;;;;;7.31;74.08;101562.59;1781443;80;21195;-46
2021/01/05 03:36:48;;;;;;;19.02;11.20;;;;;;;7.51;73.45;101558.35;1769015;80;21152;-46
2021/01/05 03:39:37;;;;;;;18.30;10.88;;;;;;;7.53;73.35;101557.92;1769858;80;21132;-46
2021/01/05 03:42:24;;;;;;;18.67;11.60;;;;;;;7.51;73.39;101557.05;1768271;80;21580;-46
2021/01/05 03:45:17;;;;;;;22.62;12.33;;;;;;;7.53;73.48;101557.92;1769230;80;21089;-46
2021/01/05 03:48:06;;;;;;;23.65;12.70;;;;;;;7.51;73.59;101551.87;1771755;80;21155;-46
2021/01/05 03:50:53;;;;;;;18.25;10.55;;;;;;;7.52;73.70;101563.11;1771765;80;21564;-45
2021/01/05 03:53:30;;;;;;;28.62;12.68;;;;;;;7.56;73.87;101561.83;1809964;79;22957;-46
2021/01/05 03:56:16;;;;;;;21.35;11.63;;;;;;;7.53;73.93;101564.82;1783911;80;21152;-46
2021/01/05 03:59:03;;;;;;;18.60;11.85;;;;;;;7.55;73.99;101544.55;1776661;80;21114;-46
2021/01/05 04:01:53;;;;;;;21.82;12.15;;;;;;;7.55;73.96;101549.73;1776723;80;21159;-45
2021/01/05 04:04:22;;;;;;;24.67;13.03;;;;;;;7.58;73.82;101549.75;1698021;83;21807;-47
2021/01/05 04:06:50;;;;;;;23.57;12.82;;;;;;;7.60;73.89;101554.51;1701791;84;21582;-46
2021/01/05 04:09:19;;;;;;;23.92;13.00;;;;;;;7.61;73.96;101543.27;1700790;84;21383;-46
2021/01/05 04:11:47;;;;;;;21.07;12.50;;;;;;;7.64;73.95;101538.11;1700453;84;21162;-46
2021/01/05 04:14:16;;;;;;;23.60;13.00;;;;;;;7.68;73.92;101535.97;1684589;84;21301;-46
2021/01/05 04:16:48;;;;;;;33.73;14.03;;;;;;;7.73;73.64;101532.94;1703426;84;21163;-46
2021/01/05 04:19:16;;;;;;;21.27;12.55;;;;;;;7.74;73.75;101523.02;1703565;84;21147;-46
2021/01/05 04:21:50;;;;;;;25.72;12.65;;;;;;;7.76;73.74;101518.70;1701272;84;21205;-47
2021/01/05 04:24:18;;;;;;;22.65;12.98;;;;;;;7.79;73.64;101512.67;1698536;84;21791;-47
2021/01/05 04:26:47;;;;;;;23.12;13.08;;;;;;;7.81;73.52;101507.91;1705952;84;21173;-47
2021/01/05 04:29:16;;;;;;;22.77;13.20;;;;;;;7.83;73.32;101515.25;1699442;84;21320;-46
2021/01/05 04:31:44;;;;;;;21.85;12.68;;;;;;;7.89;73.11;101515.70;1706367;84;21174;-46
2021/01/05 04:34:20;;;;;;;21.57;12.80;;;;;;;7.94;73.10;101522.61;1812025;79;23051;-46
2021/01/05 04:36:48;;;;;;;28.47;13.48;;;;;;;7.92;73.00;101527.36;1780233;80;21136;-46
2021/01/05 04:39:17;;;;;;;21.02;11.43;;;;;;;7.93;73.06;101529.94;1780130;80;21338;-46
2021/01/05 04:42:03;;;;;;;26.27;14.53;;;;;;;7.99;72.87;101523.50;1777827;80;21183;-46
2021/01/05 04:44:36;;;;;;;28.32;13.58;;;;;;;8.01;72.61;101537.32;1786324;80;21326;-46
2021/01/05 04:47:25;;;;;;;25.43;11.90;;;;;;;8.04;72.55;101533.42;1748825;80;21567;-47
2021/01/05 04:50:08;;;;;;;23.75;13.90;;;;;;;8.08;72.48;101542.92;1786581;80;21305;-46
2021/01/05 04:52:59;;;;;;;25.17;11.83;;;;;;;8.04;72.54;101538.61;1782407;80;21175;-46
2021/01/05 04:55:58;;;;;;;21.87;13.10;;;;;;;8.05;72.31;101544.66;1780082;80;21140;-47
2021/01/05 04:58:52;;;;;;;23.98;13.98;;;;;;;8.05;72.26;101549.42;1773350;80;21155;-46
2021/01/05 05:01:28;;;;;;;18.05;11.33;;;;;;;8.05;72.29;101548.55;1783640;80;21180;-46
2021/01/05 05:04:22;;;;;;;16.90;11.80;;;;;;;8.08;72.05;101545.94;1748955;80;21116;-46
2021/01/05 05:07:15;;;;;;;20.12;13.30;;;;;;;8.10;71.94;101529.53;1700500;84;21170;-47
2021/01/05 05:09:58;;;;;;;25.35;13.18;;;;;;;8.09;71.69;101525.23;1700742;83;21370;-46
2021/01/05 05:13:04;;;;;;;21.10;13.43;;;;;;;8.07;71.85;101532.14;1700583;84;21181;-46
2021/01/05 05:15:49;;;;;;;25.00;13.48;;;;;;;8.11;72.02;101534.30;1770224;79;23531;-47
2021/01/05 05:18:26;;;;;;;20.23;13.10;;;;;;;8.07;72.07;101524.37;1738369;82;21206;-47
2021/01/05 05:21:24;;;;;;;23.90;13.43;;;;;;;8.08;71.98;101515.70;1741002;82;21173;-47
2021/01/05 05:24:21;;;;;;;21.02;12.53;;;;;;;8.08;72.01;101526.08;1736627;82;21605;-46
2021/01/05 05:27:26;;;;;;;24.37;13.30;;;;;;;8.09;71.98;101520.05;1744270;82;21161;-47
2021/01/05 05:30:00;;;;;;;21.35;12.03;;;;;;;8.09;72.05;101521.34;1727414;82;21358;-47
2021/01/05 05:32:50;;;;;;;19.10;12.47;;;;;;;8.15;72.10;101523.06;1690293;84;21235;-47
2021/01/05 05:35:52;;;;;;;23.73;13.45;;;;;;;8.18;72.02;101518.73;1713404;83;21585;-47
2021/01/05 05:39:12;;;;;;;21.65;13.48;;;;;;;8.26;72.05;101529.59;1769146;79;22941;-47
2021/01/05 05:42:16;;;;;;;21.65;13.35;;;;;;;8.21;72.22;101527.83;1738362;82;21446;-47
2021/01/05 05:45:00;;;;;;;24.87;13.22;;;;;;;8.25;72.32;101527.42;1740407;82;21157;-46
2021/01/05 05:48:08;;;;;;;19.65;11.85;;;;;;;8.29;72.26;101534.75;1735418;82;21157;-47
2021/01/05 05:51:00;;;;;;;22.50;13.58;;;;;;;8.32;72.30;101533.47;1738546;82;21165;-46
2021/01/05 05:53:37;;;;;;;27.42;13.68;;;;;;;8.35;72.34;101540.80;1735942;82;21184;-47
2021/01/05 05:56:10;;;;;;;30.17;14.00;;;;;;;8.38;72.50;101542.55;1648695;86;21161;-46
2021/01/05 05:58:42;;;;;;;23.77;14.18;;;;;;;8.44;72.46;101554.20;1674771;85;21198;-46
2021/01/05 06:01:30;;;;;;;28.23;13.15;;;;;;;8.30;73.11;101539.96;1771368;79;23562;-47
2021/01/05 06:03:58;;;;;;;;;;;;;;;8.42;72.86;101530.88;1742385;82;21165;-45
2021/01/05 06:06:27;;;;;;;24.82;12.75;;;;;;;8.50;72.64;101536.05;1685141;83;20140;-46
2021/01/05 06:08:56;;;;;;;24.05;12.23;;;;;;;8.51;72.75;101542.52;1736290;82;21790;-46
2021/01/05 06:11:26;;;;;;;30.95;13.43;;;;;;;8.54;72.87;101549.45;1735873;81;21605;-46
2021/01/05 06:13:54;;;;;;;25.55;13.60;;;;;;;8.57;72.93;101550.75;1738513;80;21117;-46
2021/01/05 06:16:24;;;;;;;24.92;12.58;;;;;;;8.60;72.93;101553.33;1744944;82;21149;-47
2021/01/05 06:18:52;;;;;;;26.15;12.65;;;;;;;8.64;72.91;101558.94;1738939;81;21180;-47
2021/01/05 06:21:21;;;;;;;26.52;11.12;;;;;;;8.67;72.86;101569.33;1737193;82;21549;-46
2021/01/05 06:23:49;;;;;;;20.10;11.88;;;;;;;8.70;72.84;101573.20;1740961;82;21322;-47
2021/01/05 06:26:19;;;;;;;19.73;12.28;;;;;;;8.74;72.79;101566.72;1732961;82;21148;-47
2021/01/05 06:28:48;;;;;;;22.90;12.40;;;;;;;8.78;72.72;101546.81;1698080;83;21177;-47
2021/01/05 06:31:16;;;;;;;27.37;13.53;;;;;;;8.82;72.69;101545.97;1676763;84;21249;-47
2021/01/05 06:33:45;;;;;;;24.72;12.13;;;;;;;8.84;72.69;101539.04;1685449;85;21724;-46
2021/01/05 06:36:13;;;;;;;22.27;12.45;;;;;;;8.89;72.64;101523.00;1682852;84;21332;-46
2021/01/05 06:38:41;;;;;;;20.95;12.13;;;;;;;8.90;72.53;101533.83;1676398;85;21171;-46
2021/01/05 06:41:10;;;;;;;24.07;12.20;;;;;;;8.92;72.56;101545.91;1680016;84;21166;-47
2021/01/05 06:43:38;;;;;;;20.12;11.00;;;;;;;8.95;72.60;101563.22;1681763;85;21178;-47
2021/01/05 06:46:09;;;;;;;26.37;12.15;;;;;;;8.97;72.53;101566.67;1676494;84;21221;-46
2021/01/05 06:48:37;;;;;;;22.00;11.50;;;;;;;8.98;72.57;101564.06;1665921;85;21194;-46
2021/01/05 06:51:06;;;;;;;24.92;11.38;;;;;;;8.99;72.54;101558.45;1685820;84;21181;-47
2021/01/05 06:53:34;;;;;;;24.63;12.10;;;;;;;9.00;72.53;101561.49;1676040;85;21574;-47
2021/01/05 06:56:03;;;;;;;26.60;12.78;;;;;;;9.01;72.61;101542.01;1681386;84;21617;-46
2021/01/05 06:58:32;;;;;;;25.95;12.68;;;;;;;9.04;72.64;101524.27;1680516;85;21262;-47
2021/01/05 07:01:01;;;;;;;22.65;11.68;;;;;;;9.07;72.65;101524.23;1667306;85;21143;-47
2021/01/05 07:03:29;;;;;;;26.20;11.57;;;;;;;9.07;72.73;101524.23;1682735;85;21189;-46
2021/01/05 07:05:58;;;;;;;25.20;11.70;;;;;;;9.10;72.70;101529.44;1666628;85;21174;-47
2021/01/05 07:08:26;;;;;;;21.23;11.15;;;;;;;9.08;72.64;101510.41;1680413;85;21250;-46
2021/01/05 07:10:55;;;;;;;34.98;13.32;;;;;;;9.08;72.68;101497.42;1662402;85;21323;-47
2021/01/05 07:13:23;;;;;;;28.35;13.78;;;;;;;9.08;72.69;101484.45;1681077;85;21173;-47
2021/01/05 07:15:53;;;;;;;28.25;13.03;;;;;;;9.07;72.73;101487.89;1664658;85;21181;-46
2021/01/05 07:18:22;;;;;;;30.90;12.78;;;;;;;9.07;72.90;101485.30;1675397;85;21194;-47
2021/01/05 07:20:52;;;;;;;30.60;14.33;;;;;;;9.08;73.02;101479.25;1672731;85;21218;-46
2021/01/05 07:23:20;;;;;;;26.30;13.05;;;;;;;9.13;72.93;101486.57;1673574;85;21629;-46
2021/01/05 07:25:49;;;;;;;23.15;12.20;;;;;;;9.16;72.93;101505.17;1677308;85;21771;-46
2021/01/05 07:28:17;;;;;;;28.25;12.85;;;;;;;9.18;72.83;101512.09;1695613;84;21159;-46
2021/01/05 07:30:46;;;;;;;22.15;11.95;;;;;;;9.19;72.93;101508.61;1685183;84;21294;-46
2021/01/05 07:33:15;;;;;;;23.30;12.58;;;;;;;9.21;72.93;101512.52;1681463;84;21172;-47
2021/01/05 07:35:45;;;;;;;31.55;13.43;;;;;;;9.22;72.91;101508.61;1682747;84;21633;-47
2021/01/05 07:38:13;;;;;;;23.10;11.70;;;;;;;9.23;72.69;101514.68;1684791;84;21160;-47
2021/01/05 07:40:42;;;;;;;22.25;12.68;;;;;;;9.21;72.72;101508.17;1674460;84;21193;-47
2021/01/05 07:43:11;;;;;;;20.68;12.37;;;;;;;9.17;72.76;101505.16;1684118;84;21287;-47
2021/01/05 07:45:40;;;;;;;33.92;13.80;;;;;;;9.15;72.80;101501.70;1682766;84;21549;-47
2021/01/05 07:48:08;;;;;;;32.98;14.03;;;;;;;9.13;72.76;101506.05;1684768;84;21833;-47
2021/01/05 07:50:37;;;;;;;28.80;12.63;;;;;;;9.10;72.90;101507.38;1679505;84;21192;-47
2021/01/05 07:53:05;;;;;;;27.48;11.30;;;;;;;9.10;73.01;101508.67;1685225;84;21224;-47
2021/01/05 07:55:36;;;;;;;33.10;13.13;;;;;;;9.10;73.06;101520.35;1674584;84;21124;-47
2021/01/05 07:58:04;;;;;;;30.55;12.40;;;;;;;9.07;73.15;101522.94;1686060;84;21133;-47
2021/01/05 08:00:32;;;;;;;23.10;12.47;;;;;;;9.06;73.23;101529.02;1681855;83;21149;-47
2021/01/05 08:03:01;;;;;;;29.42;12.82;;;;;;;9.06;73.22;101527.72;1668834;85;21160;-47
2021/01/05 08:05:29;;;;;;;27.35;12.28;;;;;;;9.04;73.20;101521.67;1667689;85;21193;-47
2021/01/05 08:07:58;;;;;;;28.30;12.98;;;;;;;9.03;73.30;101512.14;1676846;85;21197;-47
2021/01/05 08:10:33;;;;;;;24.25;12.93;;;;;;;9.02;73.40;101503.94;1678600;85;21157;-47
2021/01/05 08:13:05;;;;;;;33.98;14.03;;;;;;;9.03;73.47;101519.93;1635906;87;21608;-48
2021/01/05 08:15:35;;;;;;;26.55;12.90;;;;;;;9.04;73.48;101517.78;1678471;84;21597;-48
2021/01/05 08:18:06;;;;;;;23.83;12.15;;;;;;;9.04;73.41;101512.59;1684226;85;21168;-48
2021/01/05 08:20:34;;;;;;;26.37;12.58;;;;;;;9.05;73.35;101507.81;1669484;84;21181;-47
2021/01/05 08:23:03;;;;;;;25.00;12.47;;;;;;;9.02;73.36;101505.23;1680915;85;21149;-48
2021/01/05 08:25:32;;;;;;;28.73;13.72;;;;;;;9.03;73.36;101499.16;1677858;84;21204;-48
2021/01/05 08:28:00;;;;;;;24.57;13.45;;;;;;;9.05;73.42;101502.61;1672208;85;21212;-48
2021/01/05 08:30:31;;;;;;;26.33;12.95;;;;;;;9.06;73.35;101497.87;1681360;84;21192;-47
2021/01/05 08:33:04;;;;;;;26.82;12.50;;;;;;;9.08;73.34;101489.64;1680381;84;21607;-47
2021/01/05 08:35:39;;;;;;;25.40;13.28;;;;;;;9.11;73.31;101492.20;1807870;79;23593;-48
2021/01/05 08:38:08;;;;;;;23.12;13.40;;;;;;;9.08;73.26;101488.77;1783395;80;22426;-47
2021/01/05 08:40:37;;;;;;;25.45;13.98;;;;;;;9.09;73.25;101493.11;1687275;83;21441;-47
2021/01/05 08:43:08;;;;;;;23.77;12.40;;;;;;;9.09;73.14;101493.94;1746312;81;21156;-47
2021/01/05 08:45:42;;;;;;;26.57;14.20;;;;;;;9.10;73.20;101493.09;1743317;81;21557;-47
2021/01/05 08:48:10;;;;;;;21.70;12.37;;;;;;;9.10;73.15;101491.80;1707905;83;21157;-47
2021/01/05 08:50:39;;;;;;;25.00;12.45;;;;;;;9.09;73.04;101493.94;1724955;82;21188;-47
2021/01/05 08:53:10;;;;;;;25.08;13.05;;;;;;;9.07;73.00;101493.09;1723496;83;21147;-47
2021/01/05 08:55:40;;;;;;;28.92;13.50;;;;;;;9.05;72.97;101498.72;1721140;81;21166;-47
2021/01/05 08:58:08;;;;;;;26.62;13.58;;;;;;;9.01;73.07;101500.91;1737454;82;21188;-48
2021/01/05 09:00:37;;;;;;;29.00;14.47;;;;;;;9.01;73.22;101490.52;1734820;82;21158;-48
2021/01/05 09:03:06;;;;;;;29.80;13.80;;;;;;;9.01;73.23;101493.11;1749356;81;21154;-48
2021/01/05 09:05:39;;;;;;;26.17;13.03;;;;;;;8.97;73.25;101488.80;1739785;81;21185;-47
2021/01/05 09:08:07;;;;;;;25.88;13.45;;;;;;;8.96;73.47;101487.09;1747435;81;21152;-47
2021/01/05 09:10:35;;;;;;;24.43;12.98;;;;;;;8.95;73.57;101483.63;1729166;81;21134;-46
2021/01/05 09:13:03;;;;;;;30.43;14.90;;;;;;;8.96;73.72;101489.69;1731728;82;21299;-46
2021/01/05 09:15:32;;;;;;;23.47;13.53;;;;;;;8.96;73.75;101468.92;1734263;81;21309;-47
2021/01/05 09:18:02;;;;;;;26.77;13.22;;;;;;;8.97;73.83;101465.44;1725694;82;21616;-46
2021/01/05 09:20:31;;;;;;;30.20;14.65;;;;;;;8.97;73.76;101463.72;1727879;82;21786;-47
2021/01/05 09:22:59;;;;;;;35.68;15.55;;;;;;;8.97;73.75;101468.03;1724060;83;21619;-47
2021/01/05 09:25:28;;;;;;;26.60;13.78;;;;;;;8.96;73.83;101465.03;1739272;81;21143;-47
2021/01/05 09:27:57;;;;;;;30.72;13.43;;;;;;;8.96;73.99;101458.55;1719985;83;21276;-46
2021/01/05 09:30:25;;;;;;;29.52;13.90;;;;;;;8.97;73.99;101447.27;1741192;82;21133;-46
2021/01/05 09:32:54;;;;;;;32.50;14.28;;;;;;;8.97;74.00;101437.76;1742789;82;21327;-46
2021/01/05 09:35:23;;;;;;;30.12;14.05;;;;;;;8.96;73.98;101432.58;1723957;81;21168;-47
2021/01/05 09:37:51;;;;;;;31.90;14.00;;;;;;;8.96;73.97;101441.21;1772923;80;21160;-46
2021/01/05 09:40:20;;;;;;;30.32;13.08;;;;;;;8.95;73.90;101436.91;1775609;80;21149;-46
2021/01/05 09:42:48;;;;;;;24.37;12.47;;;;;;;8.95;73.99;101442.52;1710804;83;21216;-46
2021/01/05 09:45:17;;;;;;;29.82;12.55;;;;;;;8.97;74.02;101451.16;1782338;80;21144;-46
2021/01/05 09:47:45;;;;;;;27.98;13.08;;;;;;;8.98;74.17;101447.72;1763580;80;21117;-47
2021/01/05 09:50:14;;;;;;;27.40;12.53;;;;;;;9.00;74.25;101444.68;1766964;80;21150;-46
2021/01/05 09:52:43;;;;;;;28.73;12.20;;;;;;;9.03;74.23;101447.24;1769892;80;21160;-46
2021/01/05 09:55:12;;;;;;;27.15;12.50;;;;;;;9.08;74.08;101440.31;1779125;80;21342;-46
2021/01/05 09:57:40;;;;;;;27.65;13.05;;;;;;;9.09;73.96;101440.72;1772553;80;21197;-47
2021/01/05 10:00:10;;;;;;;27.30;12.65;;;;;;;9.10;73.85;101430.78;1711647;84;21722;-47
2021/01/05 10:02:38;;;;;;;32.48;13.58;;;;;;;9.12;73.85;101425.58;1770732;80;21140;-47
2021/01/05 10:05:08;;;;;;;23.45;12.63;;;;;;;9.15;73.90;101416.03;1766233;80;21089;-46
2021/01/05 10:07:36;;;;;;;29.92;12.45;;;;;;;9.20;73.86;101409.09;1712765;83;21152;-46
2021/01/05 10:10:05;;;;;;;30.17;11.90;;;;;;;9.26;73.83;101401.26;1722187;83;21180;-46
2021/01/05 10:12:33;;;;;;;29.10;14.28;;;;;;;9.31;73.69;101396.91;1715298;84;21184;-46
2021/01/05 10:15:02;;;;;;;34.20;13.55;;;;;;;9.34;73.56;101405.97;1769189;80;21274;-46
2021/01/05 10:17:30;;;;;;;28.02;12.85;;;;;;;9.36;73.36;101392.96;1711136;84;21175;-47
2021/01/05 10:19:59;;;;;;;27.58;12.35;;;;;;;9.37;73.27;101407.27;1768694;80;21149;-46
2021/01/05 10:22:27;;;;;;;25.15;12.47;;;;;;;9.35;73.17;101419.39;1771244;80;21652;-46
2021/01/05 10:24:55;;;;;;;23.22;13.10;;;;;;;9.33;73.13;101417.24;1760133;80;21592;-47
2021/01/05 10:27:24;;;;;;;33.73;14.18;;;;;;;9.32;73.16;101414.20;1779506;80;21199;-46
2021/01/05 10:29:55;;;;;;;30.30;12.73;;;;;;;9.29;73.12;101401.25;1769555;80;21283;-46
2021/01/05 10:32:23;;;;;;;30.17;13.03;;;;;;;9.28;73.21;101393.45;1711389;84;21179;-46
2021/01/05 10:34:51;;;;;;;29.32;13.43;;;;;;;9.26;73.20;101384.38;1722194;83;21228;-46
2021/01/05 10:37:20;;;;;;;22.90;11.60;;;;;;;9.25;73.36;101381.38;1709391;84;21313;-46
2021/01/05 10:39:50;;;;;;;29.40;12.80;;;;;;;9.26;73.37;101383.08;1767404;81;21141;-46
2021/01/05 10:42:19;;;;;;;28.05;13.43;;;;;;;9.26;73.38;101361.01;1709557;83;21183;-46
2021/01/05 10:44:48;;;;;;;23.47;11.83;;;;;;;9.27;73.42;101369.23;1769122;81;21145;-46
2021/01/05 10:47:16;;;;;;;27.05;13.68;;;;;;;9.29;73.44;101362.30;1766686;80;21142;-46
2021/01/05 10:49:44;;;;;;;27.17;13.55;;;;;;;9.30;73.43;101358.81;1764076;81;21204;-47
2021/01/05 10:52:17;;;;;;;32.48;13.48;;;;;;;9.32;73.36;101367.45;1709477;84;21207;-47
2021/01/05 10:54:45;;;;;;;23.52;12.23;;;;;;;9.33;73.29;101365.73;1765563;81;21153;-47
2021/01/05 10:57:13;;;;;;;26.77;13.48;;;;;;;9.32;73.21;101370.05;1760987;81;21188;-46
2021/01/05 10:59:41;;;;;;;26.95;13.85;;;;;;;9.30;73.31;101366.61;1710019;84;21164;-47
2021/01/05 11:02:10;;;;;;;28.15;13.60;;;;;;;9.30;73.40;101359.24;1769787;81;21164;-47
2021/01/05 11:04:38;;;;;;;34.27;15.28;;;;;;;9.28;73.47;101368.34;1701529;84;21156;-47
2021/01/05 11:07:12;;;;;;;36.20;15.60;;;;;;;9.28;73.54;101368.34;1770466;81;21286;-46
2021/01/05 11:09:42;;;;;;;27.10;13.03;;;;;;;9.30;73.65;101373.53;1709073;84;21159;-46
2021/01/05 11:12:15;;;;;;;29.95;14.10;;;;;;;9.31;73.63;101367.47;1769869;81;21153;-46
2021/01/05 11:14:43;;;;;;;32.53;14.68;;;;;;;9.31;73.72;101376.14;1706540;84;21604;-47
2021/01/05 11:17:12;;;;;;;30.32;15.72;;;;;;;9.34;73.75;101373.50;1767065;81;21153;-47
2021/01/05 11:19:41;;;;;;;31.55;17.85;;;;;;;9.35;73.72;101377.84;1768708;81;21172;-46
2021/01/05 11:22:16;;;;;;;33.42;15.35;;;;;;;9.37;73.79;101377.82;1772159;81;21192;-46
2021/01/05 11:24:45;;;;;;;31.60;15.60;;;;;;;9.41;73.89;101371.30;1758666;81;21153;-46
2021/01/05 11:27:14;;;;;;;28.07;14.28;;;;;;;9.44;73.81;101353.08;1709419;83;21175;-46
2021/01/05 11:29:44;;;;;;;33.48;15.28;;;;;;;9.46;73.73;101346.59;1776362;81;21173;-47
2021/01/05 11:32:15;;;;;;;25.88;14.10;;;;;;;9.47;73.70;101343.98;1707793;84;21592;-46
2021/01/05 11:34:43;;;;;;;30.65;14.98;;;;;;;9.47;73.75;101332.72;1771226;81;21149;-46
2021/01/05 11:37:16;;;;;;;28.60;13.72;;;;;;;9.46;73.88;101334.45;1761910;81;21326;-47
2021/01/05 11:39:46;;;;;;;31.35;14.63;;;;;;;9.48;73.95;101331.39;1711792;83;21140;-46
2021/01/05 11:42:18;;;;;;;32.40;15.53;;;;;;;9.50;73.88;101335.31;1754367;81;21141;-46
2021/01/05 11:44:46;;;;;;;30.35;14.70;;;;;;;9.49;73.95;101332.27;1744325;82;21212;-47
2021/01/05 11:47:16;;;;;;;29.80;14.28;;;;;;;9.48;74.06;101323.60;1745966;82;21173;-46
2021/01/05 11:49:47;;;;;;;28.35;13.98;;;;;;;9.50;74.16;101322.31;1721228;82;21720;-47
2021/01/05 11:52:15;;;;;;;28.55;14.18;;;;;;;9.53;74.28;101310.16;1744736;82;21180;-46
2021/01/05 11:54:43;;;;;;;33.00;15.20;;;;;;;9.56;74.20;101306.67;1726022;82;21193;-46